sensor_id;sensor_type;location;lat;lon;timestamp;pressure;altitude;pressure_sealevel;temperature;humidity
50268;BME280;36153;50.960;6.220;2023-02-22T00:00:13;100494.47;;;10.58;68.96
50268;BME280;36153;50.960;6.220;2023-02-22T00:03:30;100497.94;;;10.60;68.55
50268;BME280;36153;50.960;6.220;2023-02-22T00:06:32;100497.94;;;10.62;68.35
50268;BME280;36153;50.960;6.220;2023-02-22T00:09:34;100491.88;;;10.59;68.59
50268;BME280;36153;50.960;6.220;2023-02-22T00:12:36;100489.59;;;10.92;67.58
50268;BME280;36153;50.960;6.220;2023-02-22T00:15:37;100488.78;;;10.98;67.07
50268;BME280;36153;50.960;6.220;2023-02-22T00:18:41;100482.38;;;10.65;68.17
50268;BME280;36153;50.960;6.220;2023-02-22T00:21:44;100487.50;;;10.57;68.60
50268;BME280;36153;50.960;6.220;2023-02-22T00:24:47;100488.25;;;10.47;68.33
50268;BME280;36153;50.960;6.220;2023-02-22T00:27:50;100487.28;;;10.38;68.74
50268;BME280;36153;50.960;6.220;2023-02-22T00:30:53;100480.47;;;10.50;68.64
50268;BME280;36153;50.960;6.220;2023-02-22T00:33:54;100476.97;;;10.48;68.78
50268;BME280;36153;50.960;6.220;2023-02-22T00:36:56;100476.94;;;10.45;68.59
50268;BME280;36153;50.960;6.220;2023-02-22T00:39:57;100477.72;;;10.36;68.62
50268;BME280;36153;50.960;6.220;2023-02-22T00:42:59;100479.50;;;10.41;68.21
50268;BME280;36153;50.960;6.220;2023-02-22T00:46:00;100478.50;;;10.30;68.62
50268;BME280;36153;50.960;6.220;2023-02-22T00:49:00;100484.50;;;10.24;68.75
50268;BME280;36153;50.960;6.220;2023-02-22T00:52:00;100471.69;;;10.38;68.49
50268;BME280;36153;50.960;6.220;2023-02-22T00:55:03;100476.06;;;10.43;68.48
50268;BME280;36153;50.960;6.220;2023-02-22T00:58:05;100476.09;;;10.44;68.11
50268;BME280;36153;50.960;6.220;2023-02-22T01:01:07;100469.16;;;10.48;68.13
50268;BME280;36153;50.960;6.220;2023-02-22T01:04:08;100462.09;;;10.36;68.08
50268;BME280;36153;50.960;6.220;2023-02-22T01:07:08;100461.22;;;10.35;68.12
50268;BME280;36153;50.960;6.220;2023-02-22T01:10:09;100467.34;;;10.39;68.22
50268;BME280;36153;50.960;6.220;2023-02-22T01:13:11;100461.31;;;10.45;67.65
50268;BME280;36153;50.960;6.220;2023-02-22T01:16:12;100457.03;;;10.48;67.73
50268;BME280;36153;50.960;6.220;2023-02-22T01:19:12;100457.69;;;10.33;68.19
50268;BME280;36153;50.960;6.220;2023-02-22T01:22:12;100445.69;;;10.41;68.10
50268;BME280;36153;50.960;6.220;2023-02-22T01:25:19;100451.63;;;10.33;68.32
50268;BME280;36153;50.960;6.220;2023-02-22T01:28:19;100441.94;;;10.21;68.54
50268;BME280;36153;50.960;6.220;2023-02-22T01:31:21;100439.34;;;10.21;68.39
50268;BME280;36153;50.960;6.220;2023-02-22T01:34:23;100436.75;;;10.21;68.55
50268;BME280;36153;50.960;6.220;2023-02-22T01:37:25;100432.47;;;10.24;68.66
50268;BME280;36153;50.960;6.220;2023-02-22T01:40:30;100429.94;;;10.32;68.61
50268;BME280;36153;50.960;6.220;2023-02-22T01:43:31;100433.56;;;10.44;68.07
50268;BME280;36153;50.960;6.220;2023-02-22T01:46:32;100435.31;;;10.45;68.07
50268;BME280;36153;50.960;6.220;2023-02-22T01:49:51;100429.13;;;10.35;67.63
50268;BME280;36153;50.960;6.220;2023-02-22T01:52:52;100435.13;;;10.31;68.01
50268;BME280;36153;50.960;6.220;2023-02-22T01:55:54;100439.53;;;10.36;67.60
50268;BME280;36153;50.960;6.220;2023-02-22T01:59:03;100427.44;;;10.37;67.65
50268;BME280;36153;50.960;6.220;2023-02-22T02:02:09;100426.69;;;10.50;67.67
50268;BME280;36153;50.960;6.220;2023-02-22T02:05:11;100422.31;;;10.48;67.33
50268;BME280;36153;50.960;6.220;2023-02-22T02:08:49;100421.56;;;10.58;67.26
50268;BME280;36153;50.960;6.220;2023-02-22T02:11:53;100420.63;;;10.50;67.11
50268;BME280;36153;50.960;6.220;2023-02-22T02:18:16;100420.50;;;10.39;67.07
50268;BME280;36153;50.960;6.220;2023-02-22T02:25:00;100409.88;;;10.22;67.24
50268;BME280;36153;50.960;6.220;2023-02-22T02:31:54;100416.75;;;10.18;67.07
50268;BME280;36153;50.960;6.220;2023-02-22T02:35:05;100410.69;;;10.18;66.77
50268;BME280;36153;50.960;6.220;2023-02-22T02:38:21;100415.78;;;10.10;66.78
50268;BME280;36153;50.960;6.220;2023-02-22T02:41:43;100413.91;;;9.95;66.77
50268;BME280;36153;50.960;6.220;2023-02-22T02:44:52;100406.91;;;9.91;66.56
50268;BME280;36153;50.960;6.220;2023-02-22T02:47:56;100412.56;;;9.59;66.98
50268;BME280;36153;50.960;6.220;2023-02-22T02:50:59;100417.03;;;9.69;66.88
50268;BME280;36153;50.960;6.220;2023-02-22T02:54:01;100421.28;;;9.64;66.91
50268;BME280;36153;50.960;6.220;2023-02-22T02:57:03;100422.03;;;9.57;66.75
50268;BME280;36153;50.960;6.220;2023-02-22T03:00:06;100422.00;;;9.54;66.59
50268;BME280;36153;50.960;6.220;2023-02-22T03:03:45;100411.53;;;9.48;66.50
50268;BME280;36153;50.960;6.220;2023-02-22T03:06:59;100412.28;;;9.40;66.50
50268;BME280;36153;50.960;6.220;2023-02-22T03:10:15;100418.41;;;9.46;66.47
50268;BME280;36153;50.960;6.220;2023-02-22T03:16:53;100409.56;;;9.33;66.38
50268;BME280;36153;50.960;6.220;2023-02-22T03:20:01;100418.84;;;9.18;66.56
50268;BME280;36153;50.960;6.220;2023-02-22T03:23:10;100407.81;;;9.30;66.69
50268;BME280;36153;50.960;6.220;2023-02-22T03:26:18;100402.50;;;9.24;66.98
50268;BME280;36153;50.960;6.220;2023-02-22T03:29:24;100399.16;;;9.30;66.66
50268;BME280;36153;50.960;6.220;2023-02-22T03:32:30;100395.69;;;9.32;66.92
50268;BME280;36153;50.960;6.220;2023-02-22T03:35:35;100395.69;;;9.32;66.74
50268;BME280;36153;50.960;6.220;2023-02-22T03:38:37;100399.09;;;9.28;66.14
50268;BME280;36153;50.960;6.220;2023-02-22T03:41:39;100393.56;;;9.05;66.08
50268;BME280;36153;50.960;6.220;2023-02-22T03:44:40;100389.34;;;9.12;66.00
50268;BME280;36153;50.960;6.220;2023-02-22T03:47:51;100381.56;;;9.12;66.01
50268;BME280;36153;50.960;6.220;2023-02-22T03:50:55;100373.72;;;9.10;66.04
50268;BME280;36153;50.960;6.220;2023-02-22T03:53:58;100378.19;;;9.19;66.17
50268;BME280;36153;50.960;6.220;2023-02-22T03:57:05;100379.81;;;9.11;66.08
50268;BME280;36153;50.960;6.220;2023-02-22T04:00:10;100371.75;;;8.94;66.30
50268;BME280;36153;50.960;6.220;2023-02-22T04:03:11;100375.22;;;8.94;66.29
50268;BME280;36153;50.960;6.220;2023-02-22T04:06:12;100370.88;;;8.93;66.40
50268;BME280;36153;50.960;6.220;2023-02-22T04:09:13;100367.34;;;8.88;66.70
50268;BME280;36153;50.960;6.220;2023-02-22T04:12:13;100363.75;;;8.80;66.64
50268;BME280;36153;50.960;6.220;2023-02-22T04:15:21;100363.53;;;8.67;66.78
50268;BME280;36153;50.960;6.220;2023-02-22T04:18:21;100365.16;;;8.62;66.73
50268;BME280;36153;50.960;6.220;2023-02-22T04:21:22;100356.53;;;8.62;66.90
50268;BME280;36153;50.960;6.220;2023-02-22T04:24:22;100353.06;;;8.63;66.67
50268;BME280;36153;50.960;6.220;2023-02-22T04:27:22;100348.31;;;8.40;66.87
50268;BME280;36153;50.960;6.220;2023-02-22T04:30:23;100345.00;;;8.47;66.67
50268;BME280;36153;50.960;6.220;2023-02-22T04:33:23;100333.56;;;8.37;66.96
50268;BME280;36153;50.960;6.220;2023-02-22T04:36:24;100338.66;;;8.31;67.18
50268;BME280;36153;50.960;6.220;2023-02-22T04:39:24;100336.13;;;8.34;67.20
50268;BME280;36153;50.960;6.220;2023-02-22T04:42:25;100338.53;;;8.25;67.17
50268;BME280;36153;50.960;6.220;2023-02-22T04:45:25;100334.75;;;8.08;66.96
50268;BME280;36153;50.960;6.220;2023-02-22T04:48:26;100331.09;;;7.96;67.38
50268;BME280;36153;50.960;6.220;2023-02-22T04:51:26;100331.97;;;7.97;67.65
50268;BME280;36153;50.960;6.220;2023-02-22T04:54:26;100336.53;;;8.09;67.27
50268;BME280;36153;50.960;6.220;2023-02-22T04:57:27;100330.59;;;8.16;67.41
50268;BME280;36153;50.960;6.220;2023-02-22T05:00:27;100327.00;;;8.09;67.38
50268;BME280;36153;50.960;6.220;2023-02-22T05:03:27;100322.56;;;8.02;67.36
50268;BME280;36153;50.960;6.220;2023-02-22T05:06:28;100316.44;;;7.98;67.52
50268;BME280;36153;50.960;6.220;2023-02-22T05:09:28;100317.88;;;7.82;68.07
50268;BME280;36153;50.960;6.220;2023-02-22T05:12:29;100318.06;;;7.93;67.66
50268;BME280;36153;50.960;6.220;2023-02-22T05:15:29;100310.22;;;7.90;67.52
50268;BME280;36153;50.960;6.220;2023-02-22T05:18:29;100307.81;;;7.98;67.25
50268;BME280;36153;50.960;6.220;2023-02-22T05:21:30;100299.91;;;7.93;67.55
50268;BME280;36153;50.960;6.220;2023-02-22T05:24:31;100302.63;;;7.99;66.97
50268;BME280;36153;50.960;6.220;2023-02-22T05:27:31;100301.56;;;7.88;66.83
50268;BME280;36153;50.960;6.220;2023-02-22T05:30:33;100302.06;;;7.68;67.94
50268;BME280;36153;50.960;6.220;2023-02-22T05:33:34;100297.78;;;7.72;68.19
50268;BME280;36153;50.960;6.220;2023-02-22T05:36:34;100294.44;;;7.78;68.90
50268;BME280;36153;50.960;6.220;2023-02-22T05:39:35;100285.84;;;7.79;68.58
50268;BME280;36153;50.960;6.220;2023-02-22T05:42:35;100281.47;;;7.78;69.27
50268;BME280;36153;50.960;6.220;2023-02-22T05:45:35;100282.91;;;7.62;69.82
50268;BME280;36153;50.960;6.220;2023-02-22T05:48:36;100283.75;;;7.61;68.96
50268;BME280;36153;50.960;6.220;2023-02-22T05:51:36;100280.25;;;7.57;68.84
50268;BME280;36153;50.960;6.220;2023-02-22T05:54:37;100281.00;;;7.51;69.16
50268;BME280;36153;50.960;6.220;2023-02-22T05:57:37;100280.78;;;7.42;69.04
50268;BME280;36153;50.960;6.220;2023-02-22T06:00:38;100271.28;;;7.41;69.48
50268;BME280;36153;50.960;6.220;2023-02-22T06:03:38;100265.50;;;7.55;68.99
50268;BME280;36153;50.960;6.220;2023-02-22T06:06:38;100265.66;;;7.64;69.21
50268;BME280;36153;50.960;6.220;2023-02-22T06:09:39;100258.75;;;7.61;68.52
50268;BME280;36153;50.960;6.220;2023-02-22T06:12:40;100257.72;;;7.53;69.02
50268;BME280;36153;50.960;6.220;2023-02-22T06:15:40;100259.38;;;7.51;68.84
50268;BME280;36153;50.960;6.220;2023-02-22T06:18:41;100259.63;;;7.63;68.65
50268;BME280;36153;50.960;6.220;2023-02-22T06:21:50;100249.38;;;7.69;68.64
50268;BME280;36153;50.960;6.220;2023-02-22T06:24:51;100254.38;;;7.59;68.20
50268;BME280;36153;50.960;6.220;2023-02-22T06:27:51;100244.50;;;7.41;68.80
50268;BME280;36153;50.960;6.220;2023-02-22T06:30:52;100243.59;;;7.39;68.51
50268;BME280;36153;50.960;6.220;2023-02-22T06:33:52;100243.47;;;7.32;68.67
50268;BME280;36153;50.960;6.220;2023-02-22T06:36:52;100246.91;;;7.31;68.83
50268;BME280;36153;50.960;6.220;2023-02-22T06:39:53;100255.19;;;7.15;68.81
50268;BME280;36153;50.960;6.220;2023-02-22T06:42:53;100260.53;;;7.23;68.93
50268;BME280;36153;50.960;6.220;2023-02-22T06:45:53;100255.38;;;7.24;68.73
50268;BME280;36153;50.960;6.220;2023-02-22T06:48:54;100258.53;;;7.11;69.02
50268;BME280;36153;50.960;6.220;2023-02-22T06:51:54;100256.72;;;7.07;68.86
50268;BME280;36153;50.960;6.220;2023-02-22T06:54:54;100250.69;;;7.06;69.11
50268;BME280;36153;50.960;6.220;2023-02-22T06:57:55;100252.59;;;7.15;69.02
50268;BME280;36153;50.960;6.220;2023-02-22T07:00:55;100250.03;;;7.16;68.95
50268;BME280;36153;50.960;6.220;2023-02-22T07:03:56;100253.63;;;7.23;68.69
50268;BME280;36153;50.960;6.220;2023-02-22T07:06:56;100249.34;;;7.24;68.77
50268;BME280;36153;50.960;6.220;2023-02-22T07:09:57;100244.34;;;7.33;68.25
50268;BME280;36153;50.960;6.220;2023-02-22T07:12:57;100239.31;;;7.39;68.59
50268;BME280;36153;50.960;6.220;2023-02-22T07:15:57;100235.22;;;7.50;68.40
50268;BME280;36153;50.960;6.220;2023-02-22T07:18:58;100238.09;;;7.66;68.26
50268;BME280;36153;50.960;6.220;2023-02-22T07:21:59;100243.34;;;7.71;68.23
50268;BME280;36153;50.960;6.220;2023-02-22T07:24:59;100246.09;;;7.78;67.86
50268;BME280;36153;50.960;6.220;2023-02-22T07:28:00;100243.59;;;7.84;67.91
50268;BME280;36153;50.960;6.220;2023-02-22T07:31:00;100242.00;;;7.91;67.78
50268;BME280;36153;50.960;6.220;2023-02-22T07:34:01;100247.22;;;7.93;67.47
50268;BME280;36153;50.960;6.220;2023-02-22T07:37:04;100239.59;;;8.00;67.63
50268;BME280;36153;50.960;6.220;2023-02-22T07:40:05;100238.06;;;8.13;67.42
50268;BME280;36153;50.960;6.220;2023-02-22T07:43:18;100241.56;;;8.15;67.98
50268;BME280;36153;50.960;6.220;2023-02-22T07:46:18;100237.63;;;8.39;67.24
50268;BME280;36153;50.960;6.220;2023-02-22T07:49:18;100243.22;;;8.62;66.79
50268;BME280;36153;50.960;6.220;2023-02-22T07:52:19;100237.03;;;8.54;66.73
50268;BME280;36153;50.960;6.220;2023-02-22T07:55:22;100228.34;;;8.50;66.40
50268;BME280;36153;50.960;6.220;2023-02-22T07:58:24;100232.66;;;8.50;66.54
50268;BME280;36153;50.960;6.220;2023-02-22T08:01:25;100225.06;;;8.64;66.19
50268;BME280;36153;50.960;6.220;2023-02-22T08:04:25;100226.88;;;8.69;65.79
50268;BME280;36153;50.960;6.220;2023-02-22T08:07:26;100219.28;;;8.83;65.87
50268;BME280;36153;50.960;6.220;2023-02-22T08:10:26;100224.56;;;8.88;65.72
50268;BME280;36153;50.960;6.220;2023-02-22T08:13:27;100222.22;;;9.08;65.60
50268;BME280;36153;50.960;6.220;2023-02-22T08:16:27;100225.03;;;9.27;65.55
50268;BME280;36153;50.960;6.220;2023-02-22T08:19:28;100224.50;;;9.51;64.73
50268;BME280;36153;50.960;6.220;2023-02-22T08:22:28;100221.16;;;9.64;64.33
50268;BME280;36153;50.960;6.220;2023-02-22T08:25:29;100216.81;;;9.62;64.48
50268;BME280;36153;50.960;6.220;2023-02-22T08:28:29;100219.47;;;9.69;64.64
50268;BME280;36153;50.960;6.220;2023-02-22T08:31:30;100210.72;;;9.61;64.37
50268;BME280;36153;50.960;6.220;2023-02-22T08:34:31;100212.66;;;9.81;64.52
50268;BME280;36153;50.960;6.220;2023-02-22T08:37:31;100211.84;;;9.86;64.11
50268;BME280;36153;50.960;6.220;2023-02-22T08:40:35;100215.63;;;10.22;63.94
50268;BME280;36153;50.960;6.220;2023-02-22T08:43:36;100216.53;;;10.26;63.58
50268;BME280;36153;50.960;6.220;2023-02-22T08:46:36;100219.91;;;10.16;63.28
50268;BME280;36153;50.960;6.220;2023-02-22T08:49:38;100212.22;;;10.30;63.44
50268;BME280;36153;50.960;6.220;2023-02-22T08:52:38;100213.38;;;10.67;63.11
50268;BME280;36153;50.960;6.220;2023-02-22T08:55:39;100217.91;;;10.98;61.48
50268;BME280;36153;50.960;6.220;2023-02-22T08:58:40;100217.06;;;11.00;60.71
50268;BME280;36153;50.960;6.220;2023-02-22T09:01:41;100212.69;;;10.96;61.64
50268;BME280;36153;50.960;6.220;2023-02-22T09:04:42;100211.97;;;11.28;61.59
50268;BME280;36153;50.960;6.220;2023-02-22T09:07:43;100207.69;;;11.46;60.86
50268;BME280;36153;50.960;6.220;2023-02-22T09:10:45;100210.28;;;11.42;61.41
50268;BME280;36153;50.960;6.220;2023-02-22T09:13:46;100206.00;;;11.54;61.35
50268;BME280;36153;50.960;6.220;2023-02-22T09:16:46;100203.38;;;11.63;61.36
50268;BME280;36153;50.960;6.220;2023-02-22T09:19:47;100204.31;;;11.79;61.03
50268;BME280;36153;50.960;6.220;2023-02-22T09:22:48;100202.56;;;11.73;61.11
50268;BME280;36153;50.960;6.220;2023-02-22T09:25:49;100198.25;;;11.94;61.67
50268;BME280;36153;50.960;6.220;2023-02-22T09:28:49;100187.84;;;12.29;61.54
50268;BME280;36153;50.960;6.220;2023-02-22T09:31:51;100182.63;;;12.28;60.43
50268;BME280;36153;50.960;6.220;2023-02-22T09:34:53;100187.81;;;12.53;60.33
50268;BME280;36153;50.960;6.220;2023-02-22T09:37:58;100178.16;;;12.83;59.17
50268;BME280;36153;50.960;6.220;2023-02-22T09:41:10;100183.38;;;12.90;58.76
50268;BME280;36153;50.960;6.220;2023-02-22T09:44:21;100165.94;;;12.98;58.48
50268;BME280;36153;50.960;6.220;2023-02-22T09:47:32;100169.34;;;13.13;58.79
50268;BME280;36153;50.960;6.220;2023-02-22T09:50:39;100171.75;;;13.58;57.93
50268;BME280;36153;50.960;6.220;2023-02-22T09:53:44;100173.38;;;13.77;57.04
50268;BME280;36153;50.960;6.220;2023-02-22T09:56:49;100178.50;;;13.91;56.27
50268;BME280;36153;50.960;6.220;2023-02-22T10:00:16;100176.41;;;14.32;55.85
50268;BME280;36153;50.960;6.220;2023-02-22T10:03:24;100172.63;;;14.68;55.67
50268;BME280;36153;50.960;6.220;2023-02-22T10:06:28;100164.44;;;14.98;55.10
50268;BME280;36153;50.960;6.220;2023-02-22T10:09:31;100165.94;;;15.17;54.49
50268;BME280;36153;50.960;6.220;2023-02-22T10:13:14;100164.84;;;15.34;54.61
50268;BME280;36153;50.960;6.220;2023-02-22T10:19:59;100166.22;;;15.60;52.92
50268;BME280;36153;50.960;6.220;2023-02-22T10:26:26;100153.75;;;15.76;53.07
50268;BME280;36153;50.960;6.220;2023-02-22T10:29:40;100151.72;;;15.95;53.41
50268;BME280;36153;50.960;6.220;2023-02-22T10:32:43;100151.75;;;15.92;52.49
50268;BME280;36153;50.960;6.220;2023-02-22T10:35:45;100147.41;;;15.92;52.93
50268;BME280;36153;50.960;6.220;2023-02-22T10:39:19;100143.31;;;16.27;52.13
50268;BME280;36153;50.960;6.220;2023-02-22T10:42:25;100142.09;;;16.45;51.38
50268;BME280;36153;50.960;6.220;2023-02-22T10:45:31;100144.25;;;16.71;51.60
50268;BME280;36153;50.960;6.220;2023-02-22T10:48:36;100146.56;;;16.88;51.40
50268;BME280;36153;50.960;6.220;2023-02-22T10:51:37;100140.72;;;17.16;51.80
50268;BME280;36153;50.960;6.220;2023-02-22T10:54:42;100137.16;;;17.17;51.35
50268;BME280;36153;50.960;6.220;2023-02-22T10:57:46;100139.50;;;17.31;51.40
50268;BME280;36153;50.960;6.220;2023-02-22T11:00:48;100140.72;;;17.55;50.94
50268;BME280;36153;50.960;6.220;2023-02-22T11:07:15;100147.66;;;17.97;50.64
50268;BME280;36153;50.960;6.220;2023-02-22T11:10:29;100130.84;;;18.03;49.50
50268;BME280;36153;50.960;6.220;2023-02-22T11:13:37;100135.53;;;18.26;48.86
50268;BME280;36153;50.960;6.220;2023-02-22T11:16:51;100132.19;;;18.52;48.56
50268;BME280;36153;50.960;6.220;2023-02-22T11:19:52;100132.44;;;18.74;48.49
50268;BME280;36153;50.960;6.220;2023-02-22T11:22:54;100132.09;;;18.88;47.76
50268;BME280;36153;50.960;6.220;2023-02-22T11:26:04;100128.41;;;18.94;47.25
50268;BME280;36153;50.960;6.220;2023-02-22T11:29:21;100138.00;;;18.97;47.30
50268;BME280;36153;50.960;6.220;2023-02-22T11:32:24;100137.84;;;19.03;47.93
50268;BME280;36153;50.960;6.220;2023-02-22T11:35:32;100141.19;;;19.38;46.98
50268;BME280;36153;50.960;6.220;2023-02-22T11:38:38;100130.38;;;19.47;45.66
50268;BME280;36153;50.960;6.220;2023-02-22T11:41:38;100134.44;;;19.27;46.31
50268;BME280;36153;50.960;6.220;2023-02-22T11:44:39;100126.69;;;19.23;45.33
50268;BME280;36153;50.960;6.220;2023-02-22T11:58:27;100109.38;;;19.42;46.80
50268;BME280;36153;50.960;6.220;2023-02-22T12:11:36;100111.84;;;19.19;43.44
50268;BME280;36153;50.960;6.220;2023-02-22T12:14:57;100104.28;;;19.36;44.25
50268;BME280;36153;50.960;6.220;2023-02-22T12:18:20;100115.34;;;19.76;44.13
50268;BME280;36153;50.960;6.220;2023-02-22T12:21:23;100114.50;;;19.75;45.24
50268;BME280;36153;50.960;6.220;2023-02-22T12:24:33;100120.56;;;19.77;44.63
50268;BME280;36153;50.960;6.220;2023-02-22T12:27:46;100118.94;;;19.73;43.17
50268;BME280;36153;50.960;6.220;2023-02-22T12:37:33;100105.91;;;19.95;44.80
50268;BME280;36153;50.960;6.220;2023-02-22T12:44:18;100105.19;;;19.92;45.20
50268;BME280;36153;50.960;6.220;2023-02-22T12:47:22;100108.97;;;19.83;44.03
50268;BME280;36153;50.960;6.220;2023-02-22T12:50:28;100108.88;;;19.86;44.22
50268;BME280;36153;50.960;6.220;2023-02-22T12:53:34;100116.63;;;19.64;43.44
50268;BME280;36153;50.960;6.220;2023-02-22T12:56:47;100104.56;;;19.55;43.02
50268;BME280;36153;50.960;6.220;2023-02-22T13:00:04;100116.91;;;19.26;43.05
50268;BME280;36153;50.960;6.220;2023-02-22T13:03:24;100112.63;;;19.22;44.08
50268;BME280;36153;50.960;6.220;2023-02-22T13:06:48;100113.56;;;18.91;45.11
50268;BME280;36153;50.960;6.220;2023-02-22T13:19:58;100107.78;;;19.37;43.08
50268;BME280;36153;50.960;6.220;2023-02-22T13:26:23;100093.69;;;19.08;44.46
50268;BME280;36153;50.960;6.220;2023-02-22T13:29:48;100095.47;;;19.37;43.75
50268;BME280;36153;50.960;6.220;2023-02-22T13:36:35;100093.81;;;19.61;43.39
50268;BME280;36153;50.960;6.220;2023-02-22T13:39:50;100099.13;;;19.32;43.85
50268;BME280;36153;50.960;6.220;2023-02-22T13:50:01;100095.44;;;19.09;44.23
50268;BME280;36153;50.960;6.220;2023-02-22T13:53:13;100090.59;;;18.64;44.84
50268;BME280;36153;50.960;6.220;2023-02-22T13:56:15;100091.19;;;18.42;45.51
50268;BME280;36153;50.960;6.220;2023-02-22T13:59:31;100093.22;;;18.64;45.00
50268;BME280;36153;50.960;6.220;2023-02-22T14:05:55;100083.34;;;18.70;45.54
50268;BME280;36153;50.960;6.220;2023-02-22T14:09:00;100096.06;;;18.56;45.44
50268;BME280;36153;50.960;6.220;2023-02-22T14:12:06;100095.63;;;18.71;45.13
50268;BME280;36153;50.960;6.220;2023-02-22T14:18:15;100093.13;;;18.67;45.52
50268;BME280;36153;50.960;6.220;2023-02-22T14:24:18;100092.16;;;18.38;46.06
50268;BME280;36153;50.960;6.220;2023-02-22T14:27:18;100097.78;;;18.25;46.21
50268;BME280;36153;50.960;6.220;2023-02-22T14:30:28;100084.09;;;18.11;45.49
50268;BME280;36153;50.960;6.220;2023-02-22T14:37:08;100093.53;;;18.20;46.79
50268;BME280;36153;50.960;6.220;2023-02-22T14:40:29;100093.19;;;18.32;47.09
50268;BME280;36153;50.960;6.220;2023-02-22T14:43:34;100096.78;;;18.30;47.02
50268;BME280;36153;50.960;6.220;2023-02-22T14:46:36;100100.72;;;18.46;47.01
50268;BME280;36153;50.960;6.220;2023-02-22T14:49:41;100102.78;;;18.66;47.10
50268;BME280;36153;50.960;6.220;2023-02-22T14:52:44;100105.19;;;18.75;46.58
50268;BME280;36153;50.960;6.220;2023-02-22T15:02:12;100109.63;;;18.42;47.31
50268;BME280;36153;50.960;6.220;2023-02-22T15:05:16;100106.25;;;18.04;47.72
50268;BME280;36153;50.960;6.220;2023-02-22T15:08:18;100110.22;;;17.84;48.05
50268;BME280;36153;50.960;6.220;2023-02-22T15:11:28;100115.88;;;17.67;48.51
50268;BME280;36153;50.960;6.220;2023-02-22T15:14:34;100110.81;;;17.60;48.88
50268;BME280;36153;50.960;6.220;2023-02-22T15:17:38;100113.44;;;17.60;48.87
50268;BME280;36153;50.960;6.220;2023-02-22T15:20:39;100114.34;;;17.58;49.23
50268;BME280;36153;50.960;6.220;2023-02-22T15:23:48;100111.88;;;17.52;49.42
50268;BME280;36153;50.960;6.220;2023-02-22T15:26:49;100122.72;;;17.38;49.84
50268;BME280;36153;50.960;6.220;2023-02-22T15:29:56;100111.41;;;17.33;49.92
50268;BME280;36153;50.960;6.220;2023-02-22T15:36:14;100119.06;;;17.03;50.80
50268;BME280;36153;50.960;6.220;2023-02-22T15:39:27;100117.50;;;16.95;51.14
50268;BME280;36153;50.960;6.220;2023-02-22T15:42:28;100119.28;;;16.94;50.99
50268;BME280;36153;50.960;6.220;2023-02-22T15:45:29;100110.47;;;16.97;51.11
50268;BME280;36153;50.960;6.220;2023-02-22T15:48:31;100114.81;;;16.98;51.12
50268;BME280;36153;50.960;6.220;2023-02-22T15:51:33;100118.53;;;16.86;51.47
50268;BME280;36153;50.960;6.220;2023-02-22T15:54:40;100124.72;;;16.83;51.71
50268;BME280;36153;50.960;6.220;2023-02-22T15:57:41;100123.13;;;16.76;51.97
50268;BME280;36153;50.960;6.220;2023-02-22T16:00:44;100123.00;;;16.81;52.27
50268;BME280;36153;50.960;6.220;2023-02-22T16:03:50;100128.34;;;16.78;52.34
50268;BME280;36153;50.960;6.220;2023-02-22T16:06:52;100124.31;;;16.60;52.37
50268;BME280;36153;50.960;6.220;2023-02-22T16:10:29;100118.41;;;16.48;52.81
50268;BME280;36153;50.960;6.220;2023-02-22T16:13:34;100129.00;;;16.42;52.56
50268;BME280;36153;50.960;6.220;2023-02-22T16:16:36;100120.16;;;16.48;52.50
50268;BME280;36153;50.960;6.220;2023-02-22T16:19:42;100128.25;;;16.37;53.09
50268;BME280;36153;50.960;6.220;2023-02-22T16:22:46;100133.66;;;16.28;53.42
50268;BME280;36153;50.960;6.220;2023-02-22T16:26:16;100137.53;;;16.07;54.04
50268;BME280;36153;50.960;6.220;2023-02-22T16:29:24;100142.13;;;15.94;54.37
50268;BME280;36153;50.960;6.220;2023-02-22T16:32:25;100141.22;;;15.95;54.08
50268;BME280;36153;50.960;6.220;2023-02-22T16:35:27;100151.09;;;15.77;54.52
50268;BME280;36153;50.960;6.220;2023-02-22T16:38:30;100151.97;;;15.76;54.48
50268;BME280;36153;50.960;6.220;2023-02-22T16:41:32;100157.41;;;15.64;55.00
50268;BME280;36153;50.960;6.220;2023-02-22T16:44:32;100153.06;;;15.64;54.92
50268;BME280;36153;50.960;6.220;2023-02-22T16:47:33;100153.91;;;15.65;55.14
50268;BME280;36153;50.960;6.220;2023-02-22T16:50:34;100162.75;;;15.58;55.49
50268;BME280;36153;50.960;6.220;2023-02-22T16:53:35;100160.34;;;15.44;56.10
50268;BME280;36153;50.960;6.220;2023-02-22T16:56:38;100158.66;;;15.40;55.94
50268;BME280;36153;50.960;6.220;2023-02-22T16:59:39;100156.81;;;15.43;55.68
50268;BME280;36153;50.960;6.220;2023-02-22T17:02:40;100163.88;;;15.40;55.85
50268;BME280;36153;50.960;6.220;2023-02-22T17:05:40;100160.56;;;15.28;56.11
50268;BME280;36153;50.960;6.220;2023-02-22T17:08:41;100162.28;;;15.28;56.36
50268;BME280;36153;50.960;6.220;2023-02-22T17:11:42;100159.72;;;15.23;56.67
50268;BME280;36153;50.960;6.220;2023-02-22T17:14:44;100164.34;;;15.04;57.74
50268;BME280;36153;50.960;6.220;2023-02-22T17:17:45;100168.72;;;15.04;57.26
50268;BME280;36153;50.960;6.220;2023-02-22T17:20:45;100174.00;;;15.02;57.24
50268;BME280;36153;50.960;6.220;2023-02-22T17:23:46;100174.16;;;14.87;58.66
50268;BME280;36153;50.960;6.220;2023-02-22T17:26:47;100182.16;;;14.76;58.40
50268;BME280;36153;50.960;6.220;2023-02-22T17:29:48;100189.97;;;14.77;59.53
50268;BME280;36153;50.960;6.220;2023-02-22T17:32:49;100189.41;;;14.47;60.05
50268;BME280;36153;50.960;6.220;2023-02-22T17:35:50;100193.91;;;14.30;60.27
50268;BME280;36153;50.960;6.220;2023-02-22T17:38:50;100206.94;;;14.34;62.13
50268;BME280;36153;50.960;6.220;2023-02-22T17:41:51;100206.22;;;14.19;62.96
50268;BME280;36153;50.960;6.220;2023-02-22T17:44:56;100210.50;;;14.27;62.71
50268;BME280;36153;50.960;6.220;2023-02-22T17:47:56;100210.53;;;14.24;63.74